Current Weather

Buchanan Fld

Concord, California (KCCR)

Report from: Wednesday, August 17, 2022 5:53 PM PDT
Current time: Wednesday, August 17, 2022 6:15 PM PDT

Nearby weather
Weather history
Weather forecast

Temperature33.9°C (93.0°F)
Heat index31.5°C (88.7°F)
Dew point3.3°C (37.9°F)
Winds 9 kts (4.6 m/s, 10.4 mph) Southwest (230°)
Visibility10 mi. (16.1 km)
Clouds Sky clear
Altimeter29.83 in.Hg (1010 mB)
Relative humidity15 %
Density altitude2,371 ft. (723 m)
Sea-level pressure100.9 kPa (1009 mB, 29.79 in.Hg)
Remarks Automated weather observing station with precipitation discriminator
Flight conditions Visual Meteorological Conditions
Raw dataKCCR 180053Z 23009KT 10SM CLR 34/03 A2983 RMK AO2 SLP087 T03390033
An error has occurred. This application may no longer respond until reloaded. Reload 🗙